Time;durP1;ratioP1;P1;durP2;ratioP2;P2;SDS_P1;SDS_P2;PMS_P1;PMS_P2;Temp;Humidity;BMP_temperature;BMP_pressure;BME280_temperature;BME280_humidity;BME280_pressure;Samples;Min_cycle;Max_cycle;Signal;HPM_P1;HPM_P2
2022/07/04 00:00:09;;;;;;;;;;;28.40;67.20;;;;;;5159539;27;20425;-67
2022/07/04 00:02:35;;;;;;;;;;;28.50;67.10;;;;;;5159149;27;20001;-67
2022/07/04 00:05:01;;;;;;;;;;;28.40;67.30;;;;;;5159132;27;19936;-68
2022/07/04 00:07:27;;;;;;;;;;;28.20;67.70;;;;;;5158797;27;19915;-68
2022/07/04 00:09:53;;;;;;;;;;;28.10;68.20;;;;;;5159157;27;19903;-67
2022/07/04 00:12:19;;;;;;;;;;;27.90;68.40;;;;;;5159058;27;19903;-67
2022/07/04 00:14:44;;;;;;;;;;;27.90;68.50;;;;;;5159080;27;20273;-67
2022/07/04 00:17:10;;;;;;;;;;;27.90;68.60;;;;;;5158972;27;19911;-67
2022/07/04 00:19:36;;;;;;;;;;;27.90;68.90;;;;;;5159234;27;19906;-68
2022/07/04 00:22:02;;;;;;;;;;;27.80;68.90;;;;;;5158755;27;19910;-67
2022/07/04 00:24:28;;;;;;;;;;;27.80;68.90;;;;;;5158816;27;20103;-67
2022/07/04 00:26:54;;;;;;;;;;;27.80;69.10;;;;;;5159163;27;19952;-67
2022/07/04 00:29:20;;;;;;;;;;;27.80;69.20;;;;;;5158789;27;19940;-67
2022/07/04 00:31:45;;;;;;;;;;;27.70;69.00;;;;;;5158915;27;20379;-67
2022/07/04 00:34:11;;;;;;;;;;;27.70;69.10;;;;;;5158942;27;19910;-67
2022/07/04 00:36:37;;;;;;;;;;;27.60;69.40;;;;;;5156739;27;20362;-67
2022/07/04 00:39:03;;;;;;;;;;;27.60;69.40;;;;;;5155740;27;19981;-67
2022/07/04 00:41:29;;;;;;;;;;;27.50;69.40;;;;;;5155398;27;19950;-68
2022/07/04 00:44:08;;;;;;;;;;;27.50;69.50;;;;;;5155714;27;19942;-67
2022/07/04 00:46:34;;;;;;;;;;;27.40;69.60;;;;;;5155259;27;19903;-67
2022/07/04 00:49:01;;;;;;;;;;;27.40;69.50;;;;;;5155178;27;20316;-67
2022/07/04 00:51:27;;;;;;;;;;;27.30;69.40;;;;;;5155105;27;20388;-67
2022/07/04 00:53:54;;;;;;;;;;;27.30;69.20;;;;;;5153641;27;19903;-67
2022/07/04 00:56:20;;;;;;;;;;;27.50;68.90;;;;;;5155127;27;19958;-67
2022/07/04 00:58:46;;;;;;;;;;;27.60;68.60;;;;;;5155373;27;19928;-67
2022/07/04 01:01:12;;;;;;;;;;;27.60;68.60;;;;;;5155000;27;19915;-67
2022/07/04 01:03:37;;;;;;;;;;;27.50;68.80;;;;;;5153508;27;19907;-67
2022/07/04 01:06:04;;;;;;;;;;;27.50;68.80;;;;;;5154998;27;19946;-67
2022/07/04 01:08:30;;;;;;;;;;;27.40;68.90;;;;;;5155265;27;20267;-68
2022/07/04 01:10:55;;;;;;;;;;;27.40;69.10;;;;;;5154745;27;19902;-67
2022/07/04 01:13:22;;;;;;;;;;;27.50;69.30;;;;;;5154813;27;20320;-67
2022/07/04 01:15:48;;;;;;;;;;;27.40;69.70;;;;;;5154554;27;19907;-67
2022/07/04 01:18:14;;;;;;;;;;;27.40;70.00;;;;;;5154629;27;19930;-67
2022/07/04 01:20:40;;;;;;;;;;;27.30;70.10;;;;;;5154820;27;19903;-67
2022/07/04 01:23:06;;;;;;;;;;;27.30;70.30;;;;;;5154714;27;20259;-67
2022/07/04 01:25:32;;;;;;;;;;;27.20;70.30;;;;;;5154775;27;19909;-69
2022/07/04 01:28:01;;;;;;;;;;;27.20;70.70;;;;;;5154566;27;19955;-69
2022/07/04 01:30:28;;;;;;;;;;;27.10;70.90;;;;;;5154644;27;19903;-67
2022/07/04 01:32:53;;;;;;;;;;;27.20;71.00;;;;;;5154440;27;20334;-67
2022/07/04 01:35:19;;;;;;;;;;;27.20;70.30;;;;;;5154643;27;19994;-67
2022/07/04 01:37:45;;;;;;;;;;;27.30;70.40;;;;;;5154212;27;20001;-67
2022/07/04 01:40:12;;;;;;;;;;;27.40;70.40;;;;;;5154313;27;19903;-67
2022/07/04 01:42:38;;;;;;;;;;;27.30;70.30;;;;;;5154347;27;19907;-67
2022/07/04 01:45:04;;;;;;;;;;;27.30;69.80;;;;;;5154450;27;19909;-67
2022/07/04 01:47:30;;;;;;;;;;;27.40;69.50;;;;;;5152060;27;19998;-67
2022/07/04 01:49:56;;;;;;;;;;;27.40;68.70;;;;;;5154129;27;19903;-67
2022/07/04 01:52:22;;;;;;;;;;;27.50;68.80;;;;;;5154375;27;19914;-67
2022/07/04 01:54:47;;;;;;;;;;;27.50;69.00;;;;;;5154117;27;19907;-67
2022/07/04 01:57:13;;;;;;;;;;;27.50;68.80;;;;;;5153893;27;19967;-67
2022/07/04 02:02:24;;;;;;;;;;;27.60;68.20;;;;;;5154186;27;19945;-67
2022/07/04 02:04:50;;;;;;;;;;;27.60;68.30;;;;;;5153785;27;19959;-67
2022/07/04 02:07:15;;;;;;;;;;;27.50;68.30;;;;;;5153490;27;19915;-67
2022/07/04 02:09:41;;;;;;;;;;;27.50;68.40;;;;;;5153883;27;19917;-67
2022/07/04 02:14:51;;;;;;;;;;;27.30;68.80;;;;;;5153992;27;19938;-67
2022/07/04 02:17:17;;;;;;;;;;;27.30;68.90;;;;;;5151904;27;19914;-68
2022/07/04 02:19:43;;;;;;;;;;;27.30;68.90;;;;;;5151570;27;19994;-67
2022/07/04 02:22:09;;;;;;;;;;;27.30;68.90;;;;;;5153562;27;20254;-67
2022/07/04 02:24:35;;;;;;;;;;;27.20;68.80;;;;;;5153554;27;19956;-67
2022/07/04 02:27:01;;;;;;;;;;;27.20;68.60;;;;;;5153456;27;19903;-67
2022/07/04 02:29:27;;;;;;;;;;;27.20;68.50;;;;;;5153169;27;19903;-67
2022/07/04 02:31:52;;;;;;;;;;;27.30;68.40;;;;;;5153240;27;20272;-67
2022/07/04 02:34:18;;;;;;;;;;;27.30;68.20;;;;;;5153306;27;19959;-66
2022/07/04 02:36:44;;;;;;;;;;;27.30;68.00;;;;;;5153007;27;19918;-67
2022/07/04 02:39:10;;;;;;;;;;;27.30;68.10;;;;;;5152864;27;19946;-67
2022/07/04 02:41:36;;;;;;;;;;;27.30;68.20;;;;;;5153149;27;20275;-67
2022/07/04 02:44:02;;;;;;;;;;;27.30;68.10;;;;;;5153193;27;20025;-67
2022/07/04 02:46:28;;;;;;;;;;;27.30;68.20;;;;;;5153088;27;19983;-67
2022/07/04 02:48:54;;;;;;;;;;;27.20;68.30;;;;;;5152735;27;19915;-67
2022/07/04 02:51:20;;;;;;;;;;;27.30;68.30;;;;;;5151443;27;19993;-69
2022/07/04 02:53:46;;;;;;;;;;;27.30;68.40;;;;;;5153649;27;19903;-67
2022/07/04 02:56:11;;;;;;;;;;;27.30;68.30;;;;;;5153476;27;20193;-67
2022/07/04 02:58:37;;;;;;;;;;;27.30;68.70;;;;;;5153339;27;19966;-67
2022/07/04 03:01:03;;;;;;;;;;;27.20;68.80;;;;;;5153079;27;19922;-67
2022/07/04 03:03:29;;;;;;;;;;;27.20;68.90;;;;;;5153719;27;20061;-67
2022/07/04 03:05:55;;;;;;;;;;;27.20;68.90;;;;;;5151910;27;19914;-67
2022/07/04 03:08:20;;;;;;;;;;;27.20;69.00;;;;;;5153171;27;20334;-67
2022/07/04 03:10:48;;;;;;;;;;;27.30;69.40;;;;;;5153424;27;19994;-68
2022/07/04 03:13:14;;;;;;;;;;;27.20;68.90;;;;;;5153377;27;19903;-67
2022/07/04 03:15:40;;;;;;;;;;;27.30;68.70;;;;;;5152913;27;20001;-67
2022/07/04 03:18:05;;;;;;;;;;;27.30;68.60;;;;;;5152769;27;20337;-67
2022/07/04 03:20:31;;;;;;;;;;;27.30;68.80;;;;;;5153098;27;19956;-67
2022/07/04 03:22:57;;;;;;;;;;;27.20;69.60;;;;;;5152384;27;19903;-67
2022/07/04 03:25:23;;;;;;;;;;;27.20;68.70;;;;;;5153583;27;19933;-67
2022/07/04 03:27:49;;;;;;;;;;;27.10;68.70;;;;;;5154051;27;19956;-67
2022/07/04 03:30:14;;;;;;;;;;;27.20;68.80;;;;;;5153631;27;19911;-67
2022/07/04 03:32:40;;;;;;;;;;;27.10;68.80;;;;;;5154118;27;19964;-67
2022/07/04 03:35:06;;;;;;;;;;;27.10;68.90;;;;;;5153519;27;19903;-67
2022/07/04 03:37:32;;;;;;;;;;;27.10;68.90;;;;;;5153598;27;20367;-67
2022/07/04 03:39:58;;;;;;;;;;;27.10;69.10;;;;;;5153574;27;19906;-67
2022/07/04 03:42:23;;;;;;;;;;;27.00;69.20;;;;;;5153636;27;19903;-67
2022/07/04 03:44:49;;;;;;;;;;;27.10;69.00;;;;;;5151944;27;19914;-67
2022/07/04 03:47:15;;;;;;;;;;;27.10;69.30;;;;;;5153840;27;19982;-67
2022/07/04 03:49:41;;;;;;;;;;;27.10;69.80;;;;;;5153600;27;20389;-67
2022/07/04 03:52:07;;;;;;;;;;;27.00;70.00;;;;;;5154074;27;19903;-68
2022/07/04 03:54:32;;;;;;;;;;;27.10;70.10;;;;;;5153735;27;19911;-67
2022/07/04 03:56:58;;;;;;;;;;;27.00;70.20;;;;;;5153267;27;20250;-67
2022/07/04 03:59:24;;;;;;;;;;;27.00;70.40;;;;;;5151916;27;19903;-67
2022/07/04 04:01:50;;;;;;;;;;;27.10;70.40;;;;;;5151945;27;19909;-67
2022/07/04 04:07:00;;;;;;;;;;;27.20;70.00;;;;;;5153304;27;19922;-66
2022/07/04 04:09:25;;;;;;;;;;;27.10;70.30;;;;;;5153659;27;19903;-67
2022/07/04 04:11:51;;;;;;;;;;;27.10;70.40;;;;;;5154130;27;20438;-67
2022/07/04 04:14:17;;;;;;;;;;;27.10;70.40;;;;;;5155445;27;19998;-67
2022/07/04 04:16:43;;;;;;;;;;;27.10;70.50;;;;;;5157468;27;20013;-67
2022/07/04 04:19:09;;;;;;;;;;;27.10;70.70;;;;;;5158151;27;19903;-67
2022/07/04 04:21:35;;;;;;;;;;;27.10;70.60;;;;;;5156316;27;19958;-67
2022/07/04 04:24:01;;;;;;;;;;;27.30;70.40;;;;;;5157746;27;19903;-68
2022/07/04 04:26:27;;;;;;;;;;;27.30;70.30;;;;;;5157500;27;19958;-67
2022/07/04 04:28:53;;;;;;;;;;;27.40;70.10;;;;;;5157664;27;19902;-67
2022/07/04 04:31:19;;;;;;;;;;;27.50;69.80;;;;;;5158026;27;20011;-67
2022/07/04 04:33:45;;;;;;;;;;;27.50;69.90;;;;;;5157339;27;20072;-69
2022/07/04 04:36:11;;;;;;;;;;;27.50;69.70;;;;;;5157868;27;19907;-67
2022/07/04 04:38:37;;;;;;;;;;;27.60;69.60;;;;;;5157602;27;19915;-67
2022/07/04 04:41:02;;;;;;;;;;;27.60;69.30;;;;;;5158096;27;19971;-67
2022/07/04 04:43:28;;;;;;;;;;;27.70;69.30;;;;;;5157586;27;20010;-68
2022/07/04 04:45:54;;;;;;;;;;;27.80;69.40;;;;;;5157850;27;20306;-67
2022/07/04 04:48:20;;;;;;;;;;;27.80;69.20;;;;;;5157766;27;19903;-67
2022/07/04 04:50:46;;;;;;;;;;;27.90;68.90;;;;;;5156830;27;19948;-68
2022/07/04 04:53:12;;;;;;;;;;;27.90;68.70;;;;;;5156606;27;19914;-68
2022/07/04 04:55:38;;;;;;;;;;;27.90;68.70;;;;;;5156566;27;19903;-67
2022/07/04 04:58:04;;;;;;;;;;;27.90;69.00;;;;;;5156550;27;19911;-67
2022/07/04 05:00:30;;;;;;;;;;;27.90;69.20;;;;;;5157077;27;19903;-68
2022/07/04 05:02:56;;;;;;;;;;;28.00;69.00;;;;;;5156479;27;19903;-68
2022/07/04 05:05:22;;;;;;;;;;;28.20;68.80;;;;;;5156907;27;19918;-68
2022/07/04 05:07:48;;;;;;;;;;;28.50;67.80;;;;;;5156535;27;19915;-68
2022/07/04 05:10:15;;;;;;;;;;;28.90;67.10;;;;;;5156994;27;19903;-67
2022/07/04 05:12:41;;;;;;;;;;;29.20;66.50;;;;;;5155419;27;20243;-67
2022/07/04 05:15:08;;;;;;;;;;;29.50;65.70;;;;;;5157461;27;20246;-67
2022/07/04 05:17:33;;;;;;;;;;;29.80;65.10;;;;;;5156441;27;20014;-67
2022/07/04 05:19:59;;;;;;;;;;;29.70;65.40;;;;;;5156490;27;19946;-67
2022/07/04 05:22:25;;;;;;;;;;;29.80;65.20;;;;;;5155612;27;19950;-67
2022/07/04 05:24:51;;;;;;;;;;;30.20;64.70;;;;;;5157001;27;20429;-68
2022/07/04 05:27:16;;;;;;;;;;;30.80;64.00;;;;;;5156262;27;19903;-68
2022/07/04 05:29:42;;;;;;;;;;;31.30;62.90;;;;;;5156844;27;19903;-68
2022/07/04 05:32:08;;;;;;;;;;;32.30;61.40;;;;;;5156523;27;19907;-68
2022/07/04 05:34:34;;;;;;;;;;;33.50;59.50;;;;;;5156325;27;19970;-66
2022/07/04 05:37:00;;;;;;;;;;;33.90;58.50;;;;;;5156493;27;19918;-67
2022/07/04 05:39:26;;;;;;;;;;;34.50;57.90;;;;;;5156123;27;19914;-67
2022/07/04 05:41:52;;;;;;;;;;;35.10;56.90;;;;;;5156121;27;19903;-67
2022/07/04 05:44:17;;;;;;;;;;;35.00;57.20;;;;;;5156188;27;19903;-67
2022/07/04 05:46:43;;;;;;;;;;;35.20;56.80;;;;;;5154577;27;19925;-67
2022/07/04 05:49:09;;;;;;;;;;;35.60;56.60;;;;;;5156088;27;20322;-67
2022/07/04 05:51:35;;;;;;;;;;;36.00;56.00;;;;;;5155709;27;19910;-67
2022/07/04 05:54:00;;;;;;;;;;;36.20;55.80;;;;;;5156379;27;20343;-67
2022/07/04 05:56:26;;;;;;;;;;;36.20;55.50;;;;;;5155770;27;19913;-68
2022/07/04 05:58:52;;;;;;;;;;;35.70;56.10;;;;;;5156194;27;19947;-69
2022/07/04 06:01:18;;;;;;;;;;;35.20;57.00;;;;;;5154796;27;19903;-67
2022/07/04 06:03:44;;;;;;;;;;;35.40;57.00;;;;;;5156092;27;19903;-66
2022/07/04 06:06:10;;;;;;;;;;;35.20;57.10;;;;;;5155227;27;19923;-67
2022/07/04 06:08:36;;;;;;;;;;;35.80;56.30;;;;;;5155458;27;19911;-66
2022/07/04 06:11:03;;;;;;;;;;;35.50;56.70;;;;;;5155319;27;19910;-66
2022/07/04 06:13:29;;;;;;;;;;;35.80;56.20;;;;;;5153423;27;19986;-66
2022/07/04 06:15:55;;;;;;;;;;;35.90;56.00;;;;;;5154749;27;20048;-66
2022/07/04 06:18:20;;;;;;;;;;;36.30;55.60;;;;;;5155501;27;19967;-67
2022/07/04 06:20:46;;;;;;;;;;;36.60;55.20;;;;;;5155966;27;20002;-67
2022/07/04 06:23:12;;;;;;;;;;;36.50;55.40;;;;;;5155300;27;20373;-67
2022/07/04 06:25:38;;;;;;;;;;;37.30;54.50;;;;;;5155540;27;19903;-67
2022/07/04 06:28:04;;;;;;;;;;;37.70;54.20;;;;;;5155552;27;19910;-67
2022/07/04 06:30:29;;;;;;;;;;;37.60;54.10;;;;;;5155013;27;20298;-67
2022/07/04 06:32:56;;;;;;;;;;;37.00;54.50;;;;;;5155331;27;20266;-67
2022/07/04 06:38:08;;;;;;;;;;;36.70;54.90;;;;;;5154525;27;19922;-67
2022/07/04 06:40:34;;;;;;;;;;;37.30;54.70;;;;;;5154687;27;19903;-67
2022/07/04 06:43:00;;;;;;;;;;;38.20;53.40;;;;;;5154971;27;20351;-67
2022/07/04 06:45:26;;;;;;;;;;;39.00;53.10;;;;;;5154511;27;19956;-68
2022/07/04 06:47:52;;;;;;;;;;;39.20;52.80;;;;;;5154403;27;19910;-67
2022/07/04 06:50:18;;;;;;;;;;;39.20;52.30;;;;;;5154675;27;19942;-67
2022/07/04 06:52:44;;;;;;;;;;;39.20;52.50;;;;;;5154675;27;19932;-67
2022/07/04 06:55:10;;;;;;;;;;;39.60;52.30;;;;;;5154569;27;20303;-68
2022/07/04 06:57:36;;;;;;;;;;;40.70;51.60;;;;;;5155064;27;19911;-67
2022/07/04 07:00:02;;;;;;;;;;;41.80;51.20;;;;;;5154690;27;19909;-68
2022/07/04 07:02:28;;;;;;;;;;;43.30;49.20;;;;;;5154834;27;19907;-68
2022/07/04 07:04:56;;;;;;;;;;;44.30;47.90;;;;;;5152486;27;19983;-68
2022/07/04 07:07:24;;;;;;;;;;;45.10;47.20;;;;;;5154032;27;20026;-68
2022/07/04 07:09:50;;;;;;;;;;;45.80;46.20;;;;;;5154246;27;20319;-69
2022/07/04 07:12:16;;;;;;;;;;;45.90;45.80;;;;;;5154677;27;19982;-68
2022/07/04 07:14:42;;;;;;;;;;;46.20;45.50;;;;;;5154308;27;20001;-68
2022/07/04 07:17:08;;;;;;;;;;;46.30;45.60;;;;;;5154521;27;19911;-68
2022/07/04 07:19:34;;;;;;;;;;;46.20;45.00;;;;;;5154247;27;19942;-68
2022/07/04 07:21:59;;;;;;;;;;;45.70;45.90;;;;;;5154576;27;20335;-68
2022/07/04 07:24:25;;;;;;;;;;;45.50;45.70;;;;;;5154441;27;20248;-68
2022/07/04 07:26:52;;;;;;;;;;;45.10;46.10;;;;;;5154033;27;19910;-67
2022/07/04 07:29:18;;;;;;;;;;;44.70;46.50;;;;;;5154134;27;19910;-67
2022/07/04 07:31:44;;;;;;;;;;;44.40;46.80;;;;;;5154630;27;19909;-67
2022/07/04 07:34:10;;;;;;;;;;;43.10;47.30;;;;;;5152719;27;19977;-67
2022/07/04 07:36:36;;;;;;;;;;;42.40;48.40;;;;;;5154307;27;19962;-67
2022/07/04 07:39:01;;;;;;;;;;;42.00;49.30;;;;;;5153955;27;19909;-67
2022/07/04 07:41:27;;;;;;;;;;;41.40;49.40;;;;;;5152373;27;19910;-67
2022/07/04 07:43:53;;;;;;;;;;;41.50;50.20;;;;;;5154406;27;19906;-67
2022/07/04 07:46:19;;;;;;;;;;;41.30;49.60;;;;;;5155635;27;19906;-67
2022/07/04 07:48:44;;;;;;;;;;;41.10;50.20;;;;;;5156793;27;20065;-67
2022/07/04 07:51:10;;;;;;;;;;;40.70;50.20;;;;;;5158199;27;20354;-67
2022/07/04 07:53:36;;;;;;;;;;;40.80;50.70;;;;;;5157660;27;19910;-67
2022/07/04 07:56:02;;;;;;;;;;;41.10;50.40;;;;;;5157575;27;19903;-68
2022/07/04 07:58:28;;;;;;;;;;;41.30;50.20;;;;;;5157621;27;20022;-68
2022/07/04 08:00:54;;;;;;;;;;;41.00;49.90;;;;;;5157990;27;20000;-68
2022/07/04 08:06:04;;;;;;;;;;;41.00;50.70;;;;;;5157350;27;19979;-68
2022/07/04 08:08:30;;;;;;;;;;;41.00;50.40;;;;;;5157397;27;20325;-68
2022/07/04 08:10:55;;;;;;;;;;;41.10;50.50;;;;;;5157777;27;20367;-68
2022/07/04 08:13:21;;;;;;;;;;;41.10;51.10;;;;;;5157780;27;19903;-68
2022/07/04 08:15:47;;;;;;;;;;;41.00;51.60;;;;;;5157598;27;20434;-68
2022/07/04 08:18:13;;;;;;;;;;;40.50;51.90;;;;;;5157927;27;19956;-68
2022/07/04 08:20:39;;;;;;;;;;;40.20;52.40;;;;;;5157762;27;19906;-68
2022/07/04 08:23:05;;;;;;;;;;;39.60;53.50;;;;;;5157896;27;19972;-68
2022/07/04 08:25:30;;;;;;;;;;;39.60;53.90;;;;;;5157770;27;19903;-68
2022/07/04 08:27:56;;;;;;;;;;;39.20;53.90;;;;;;5157580;27;20377;-68
2022/07/04 08:30:22;;;;;;;;;;;39.20;54.40;;;;;;5157780;27;19922;-68
2022/07/04 08:32:48;;;;;;;;;;;39.30;54.60;;;;;;5157696;27;19910;-68
2022/07/04 08:35:14;;;;;;;;;;;39.40;54.60;;;;;;5157544;27;19915;-68
2022/07/04 08:37:41;;;;;;;;;;;39.30;54.70;;;;;;5157575;27;20251;-67
2022/07/04 08:40:07;;;;;;;;;;;39.50;54.60;;;;;;5157226;27;19903;-67
2022/07/04 08:42:38;;;;;;;;;;;39.40;54.10;;;;;;5157258;27;19942;-68
2022/07/04 08:45:04;;;;;;;;;;;39.30;54.50;;;;;;5157187;27;19950;-70
2022/07/04 08:47:33;;;;;;;;;;;39.50;54.50;;;;;;5156973;27;20010;-66
2022/07/04 08:50:19;;;;;;;;;;;39.70;53.40;;;;;;5156853;27;19976;-67
2022/07/04 08:52:53;;;;;;;;;;;39.00;53.50;;;;;;5152165;27;19911;-67
2022/07/04 09:00:49;;;;;;;;;;;38.30;55.20;;;;;;5157275;27;19983;-67
2022/07/04 09:03:16;;;;;;;;;;;38.30;56.10;;;;;;5156670;27;19915;-67
2022/07/04 09:05:41;;;;;;;;;;;38.30;56.70;;;;;;5156290;27;19947;-68
2022/07/04 09:08:07;;;;;;;;;;;38.20;57.00;;;;;;5156101;27;19951;-68
2022/07/04 09:10:33;;;;;;;;;;;38.00;56.80;;;;;;5156705;27;19903;-67
2022/07/04 09:13:02;;;;;;;;;;;38.00;57.00;;;;;;5156194;27;19907;-68
2022/07/04 09:15:28;;;;;;;;;;;37.80;56.40;;;;;;5156330;27;19907;-68
2022/07/04 09:17:54;;;;;;;;;;;37.50;56.40;;;;;;5156455;27;19911;-68
2022/07/04 09:20:21;;;;;;;;;;;37.80;56.60;;;;;;5156528;27;20367;-68
2022/07/04 09:22:47;;;;;;;;;;;37.70;56.20;;;;;;5156224;27;19903;-68
2022/07/04 09:25:16;;;;;;;;;;;37.70;56.30;;;;;;5156397;27;19915;-68
2022/07/04 09:27:47;;;;;;;;;;;37.50;56.60;;;;;;5156167;27;20076;-68
2022/07/04 09:30:14;;;;;;;;;;;37.50;56.50;;;;;;5156131;27;19903;-69
2022/07/04 09:32:43;;;;;;;;;;;37.70;56.80;;;;;;5156328;27;19907;-68
2022/07/04 09:35:19;;;;;;;;;;;38.00;56.40;;;;;;5155950;27;19907;-68
2022/07/04 09:37:46;;;;;;;;;;;38.10;55.90;;;;;;5156116;27;19935;-68
2022/07/04 09:40:21;;;;;;;;;;;38.40;55.70;;;;;;5155602;27;19903;-67
2022/07/04 09:42:46;;;;;;;;;;;38.20;55.00;;;;;;5155661;27;20013;-69
2022/07/04 09:45:12;;;;;;;;;;;38.10;55.50;;;;;;5155570;27;19963;-67
2022/07/04 09:47:39;;;;;;;;;;;38.10;55.20;;;;;;5155338;27;19903;-67
2022/07/04 09:50:13;;;;;;;;;;;37.80;54.50;;;;;;5155462;27;19947;-68
2022/07/04 09:52:55;;;;;;;;;;;37.80;54.40;;;;;;5155120;27;19913;-68
2022/07/04 09:55:29;;;;;;;;;;;37.40;54.20;;;;;;5155189;27;19903;-67
2022/07/04 09:57:56;;;;;;;;;;;37.10;55.90;;;;;;5154921;27;19941;-67
2022/07/04 10:00:26;;;;;;;;;;;37.10;56.30;;;;;;5155180;27;19903;-68
2022/07/04 10:02:53;;;;;;;;;;;37.30;56.70;;;;;;5154736;27;19903;-67
2022/07/04 10:05:20;;;;;;;;;;;37.50;56.70;;;;;;5155229;27;20314;-67
2022/07/04 10:07:47;;;;;;;;;;;37.50;58.00;;;;;;5154519;27;19915;-67
2022/07/04 10:10:23;;;;;;;;;;;37.60;58.00;;;;;;5154265;27;19903;-67
2022/07/04 10:12:50;;;;;;;;;;;37.60;57.20;;;;;;5154442;27;19907;-67
2022/07/04 10:15:16;;;;;;;;;;;37.30;57.60;;;;;;5154064;27;20224;-67
2022/07/04 10:17:42;;;;;;;;;;;37.40;57.60;;;;;;5155197;27;20367;-67
2022/07/04 10:20:08;;;;;;;;;;;37.30;57.10;;;;;;5153871;27;19903;-67
2022/07/04 10:22:35;;;;;;;;;;;37.10;57.90;;;;;;5155167;27;19903;-68
2022/07/04 10:25:01;;;;;;;;;;;36.80;58.80;;;;;;5155146;27;19907;-67
2022/07/04 10:27:27;;;;;;;;;;;36.60;59.80;;;;;;5155053;27;19986;-67
2022/07/04 10:29:53;;;;;;;;;;;36.80;59.00;;;;;;5155512;27;20056;-68
2022/07/04 10:32:20;;;;;;;;;;;36.90;59.70;;;;;;5155058;27;19910;-68
2022/07/04 10:34:45;;;;;;;;;;;36.80;59.40;;;;;;5154904;27;19993;-67
2022/07/04 10:37:11;;;;;;;;;;;37.00;58.00;;;;;;5153212;27;20006;-67
2022/07/04 10:39:38;;;;;;;;;;;37.20;58.10;;;;;;5154807;27;19975;-67
2022/07/04 10:42:06;;;;;;;;;;;37.30;57.80;;;;;;5154670;27;19911;-67
2022/07/04 10:44:37;;;;;;;;;;;37.40;57.70;;;;;;5155101;27;19947;-67
2022/07/04 10:47:04;;;;;;;;;;;37.50;56.80;;;;;;5154536;27;19903;-67
2022/07/04 10:49:31;;;;;;;;;;;37.30;56.40;;;;;;5154233;27;19907;-67
2022/07/04 10:52:09;;;;;;;;;;;37.10;56.80;;;;;;5153740;27;19963;-67
2022/07/04 10:54:37;;;;;;;;;;;36.90;56.50;;;;;;5154240;27;19911;-68
2022/07/04 10:57:09;;;;;;;;;;;36.80;56.90;;;;;;5153938;27;20351;-67
2022/07/04 10:59:35;;;;;;;;;;;36.80;56.90;;;;;;5154045;27;20367;-67
2022/07/04 11:02:04;;;;;;;;;;;36.80;56.80;;;;;;5154328;27;19903;-67
2022/07/04 11:04:45;;;;;;;;;;;36.90;57.10;;;;;;5154271;27;20226;-68
2022/07/04 11:07:11;;;;;;;;;;;37.00;56.80;;;;;;5153849;27;19922;-67
2022/07/04 11:09:37;;;;;;;;;;;37.00;57.10;;;;;;5153936;27;19903;-67
2022/07/04 11:12:06;;;;;;;;;;;36.90;57.00;;;;;;5152533;27;19903;-69
2022/07/04 11:14:46;;;;;;;;;;;36.70;57.60;;;;;;5153803;27;19927;-68
2022/07/04 11:17:19;;;;;;;;;;;36.80;57.70;;;;;;5152142;27;20282;-69
2022/07/04 11:19:45;;;;;;;;;;;36.80;58.60;;;;;;5154380;27;19903;-68
2022/07/04 11:22:11;;;;;;;;;;;36.90;58.50;;;;;;5154035;27;19999;-69
2022/07/04 11:24:38;;;;;;;;;;;36.90;58.20;;;;;;5154523;27;20021;-68
2022/07/04 11:27:06;;;;;;;;;;;37.00;57.80;;;;;;5153966;27;19903;-66
2022/07/04 11:29:34;;;;;;;;;;;37.10;57.60;;;;;;5154204;27;20006;-67
2022/07/04 11:32:00;;;;;;;;;;;37.10;58.10;;;;;;5154746;27;19907;-66
2022/07/04 11:34:30;;;;;;;;;;;37.10;57.90;;;;;;5154592;27;20010;-68
2022/07/04 11:36:56;;;;;;;;;;;37.20;59.40;;;;;;5154613;27;19911;-69
2022/07/04 11:39:22;;;;;;;;;;;37.00;60.00;;;;;;5154091;27;20018;-67
2022/07/04 11:47:31;;;;;;;;;;;36.90;61.60;;;;;;5154435;27;19922;-67
2022/07/04 11:49:57;;;;;;;;;;;37.00;63.00;;;;;;5154445;27;19994;-67
2022/07/04 11:52:30;;;;;;;;;;;36.80;63.50;;;;;;5153996;27;19903;-67
2022/07/04 11:54:57;;;;;;;;;;;36.80;64.10;;;;;;5153640;27;19903;-67
2022/07/04 11:57:24;;;;;;;;;;;36.50;64.00;;;;;;5153530;27;19911;-68
2022/07/04 12:00:00;;;;;;;;;;;36.40;64.80;;;;;;5153861;27;19990;-68
2022/07/04 12:02:27;;;;;;;;;;;36.10;66.20;;;;;;5153643;27;19903;-67
2022/07/04 12:04:53;;;;;;;;;;;35.80;64.30;;;;;;5153900;27;19914;-67
2022/07/04 12:07:21;;;;;;;;;;;35.90;65.00;;;;;;5152037;27;20286;-69
2022/07/04 12:09:48;;;;;;;;;;;36.10;64.30;;;;;;5153906;27;19997;-67
2022/07/04 12:12:16;;;;;;;;;;;36.30;65.40;;;;;;5153661;27;19989;-67
2022/07/04 12:14:56;;;;;;;;;;;36.30;67.50;;;;;;5152139;27;20363;-67
2022/07/04 12:17:22;;;;;;;;;;;36.40;70.20;;;;;;5153864;27;19911;-68
2022/07/04 12:19:51;;;;;;;;;;;36.20;70.60;;;;;;5154318;27;19903;-68
2022/07/04 12:22:30;;;;;;;;;;;36.20;70.70;;;;;;5154211;27;19926;-66
2022/07/04 12:24:56;;;;;;;;;;;36.20;70.40;;;;;;5154193;27;19903;-66
2022/07/04 12:27:23;;;;;;;;;;;36.30;73.10;;;;;;5153739;27;20018;-66
2022/07/04 12:29:49;;;;;;;;;;;36.10;73.20;;;;;;5153767;27;19910;-68
2022/07/04 12:32:15;;;;;;;;;;;35.90;71.80;;;;;;5155253;27;19954;-67
2022/07/04 12:34:41;;;;;;;;;;;36.00;71.50;;;;;;5157568;27;19903;-67
2022/07/04 12:37:10;;;;;;;;;;;36.10;72.10;;;;;;5157660;27;19914;-67
2022/07/04 12:39:37;;;;;;;;;;;36.20;71.20;;;;;;5157838;27;19968;-68
2022/07/04 12:42:08;;;;;;;;;;;36.30;69.90;;;;;;5156148;27;19956;-68
2022/07/04 12:44:34;;;;;;;;;;;36.30;69.00;;;;;;5157766;27;19903;-67
2022/07/04 12:47:01;;;;;;;;;;;36.40;68.40;;;;;;5157403;27;19914;-68
2022/07/04 12:49:26;;;;;;;;;;;36.20;68.70;;;;;;5157819;27;19903;-67
2022/07/04 12:52:02;;;;;;;;;;;36.10;67.80;;;;;;5157003;27;20278;-68
2022/07/04 12:54:28;;;;;;;;;;;36.10;66.90;;;;;;5157206;27;19903;-67
2022/07/04 12:57:02;;;;;;;;;;;36.20;66.70;;;;;;5155293;27;19918;-68
2022/07/04 12:59:27;;;;;;;;;;;36.10;66.60;;;;;;5157390;27;19972;-67
2022/07/04 13:01:53;;;;;;;;;;;36.00;67.50;;;;;;5156895;27;19914;-67
2022/07/04 13:04:19;;;;;;;;;;;36.10;67.00;;;;;;5156845;27;19998;-67
2022/07/04 13:06:45;;;;;;;;;;;36.20;65.10;;;;;;5156904;27;19907;-67
2022/07/04 13:09:11;;;;;;;;;;;35.90;66.70;;;;;;5157387;27;19995;-67
2022/07/04 13:14:21;;;;;;;;;;;35.60;67.20;;;;;;5156971;27;19910;-67
2022/07/04 13:16:47;;;;;;;;;;;35.70;67.90;;;;;;5156783;27;19907;-67
2022/07/04 13:19:13;;;;;;;;;;;35.90;67.60;;;;;;5155696;27;19910;-67
2022/07/04 13:21:38;;;;;;;;;;;36.10;66.70;;;;;;5155983;27;19907;-68
2022/07/04 13:24:05;;;;;;;;;;;35.80;66.20;;;;;;5156958;27;20343;-68
2022/07/04 13:26:32;;;;;;;;;;;35.80;66.40;;;;;;5157539;27;19906;-68
2022/07/04 13:28:58;;;;;;;;;;;35.60;66.40;;;;;;5157273;27;20451;-68
2022/07/04 13:31:23;;;;;;;;;;;35.60;67.30;;;;;;5156921;27;19943;-68
2022/07/04 13:33:49;;;;;;;;;;;35.40;68.20;;;;;;5156889;27;19934;-68
2022/07/04 13:36:15;;;;;;;;;;;35.60;68.00;;;;;;5156640;27;19994;-68
2022/07/04 13:38:41;;;;;;;;;;;35.60;68.00;;;;;;5156717;27;19907;-68
2022/07/04 13:41:07;;;;;;;;;;;35.60;69.10;;;;;;5157166;27;19915;-68
2022/07/04 13:43:33;;;;;;;;;;;35.70;69.70;;;;;;5155875;27;19907;-68
2022/07/04 13:45:59;;;;;;;;;;;35.90;70.00;;;;;;5157589;27;19910;-68
2022/07/04 13:48:24;;;;;;;;;;;35.70;69.70;;;;;;5159187;27;20283;-68
2022/07/04 13:50:50;;;;;;;;;;;35.80;69.70;;;;;;5156772;27;20262;-68
2022/07/04 13:53:16;;;;;;;;;;;35.70;69.40;;;;;;5156649;27;19903;-68
2022/07/04 13:55:44;;;;;;;;;;;35.80;69.60;;;;;;5155890;27;20272;-68
2022/07/04 13:58:10;;;;;;;;;;;35.80;68.60;;;;;;5155802;27;19911;-68
2022/07/04 14:00:36;;;;;;;;;;;35.90;68.10;;;;;;5155695;27;19910;-66
2022/07/04 14:03:03;;;;;;;;;;;35.90;68.10;;;;;;5155657;27;19955;-67
2022/07/04 14:05:29;;;;;;;;;;;35.80;69.10;;;;;;5155879;27;20300;-67
2022/07/04 14:07:55;;;;;;;;;;;35.80;70.40;;;;;;5153878;27;19919;-68
2022/07/04 14:10:21;;;;;;;;;;;35.70;68.30;;;;;;5155688;27;19962;-66
2022/07/04 14:12:47;;;;;;;;;;;35.60;69.80;;;;;;5155621;27;20002;-67
2022/07/04 14:15:13;;;;;;;;;;;35.60;69.00;;;;;;5155470;27;19903;-66
2022/07/04 14:17:39;;;;;;;;;;;35.80;68.00;;;;;;5155388;27;19915;-66
2022/07/04 14:20:05;;;;;;;;;;;35.90;67.80;;;;;;5157112;27;19903;-67
2022/07/04 14:22:31;;;;;;;;;;;35.90;68.20;;;;;;5156900;27;19903;-68
2022/07/04 14:24:57;;;;;;;;;;;35.90;69.00;;;;;;5157152;27;19903;-68
2022/07/04 14:27:23;;;;;;;;;;;36.00;69.70;;;;;;5157517;27;19903;-69
2022/07/04 14:29:49;;;;;;;;;;;36.10;70.80;;;;;;5157926;27;19939;-68
2022/07/04 14:32:15;;;;;;;;;;;36.10;70.20;;;;;;5156845;27;19909;-67
2022/07/04 14:34:40;;;;;;;;;;;36.00;69.40;;;;;;5157524;27;19960;-68
2022/07/04 14:37:07;;;;;;;;;;;35.80;69.30;;;;;;5156496;27;19907;-68
2022/07/04 14:39:33;;;;;;;;;;;35.80;68.90;;;;;;5157058;27;20038;-69